createdAt,value
2019-06-27T00:00:27.835Z,29.10
2019-06-27T00:01:32.923Z,29.10
2019-06-27T00:02:37.422Z,29.10
2019-06-27T00:03:42.555Z,29.00
2019-06-27T00:04:47.088Z,29.00
2019-06-27T00:05:52.301Z,29.00
2019-06-27T00:06:56.790Z,28.90
2019-06-27T00:08:01.926Z,28.90
2019-06-27T00:09:08.124Z,28.90
2019-06-27T00:10:14.198Z,28.90
2019-06-27T00:11:19.418Z,28.80
2019-06-27T00:12:24.654Z,28.80
2019-06-27T00:13:29.459Z,28.80
2019-06-27T00:14:34.593Z,28.80
2019-06-27T00:15:39.111Z,28.80
2019-06-27T00:16:44.427Z,28.70
2019-06-27T00:17:48.935Z,28.70
2019-06-27T00:18:54.134Z,28.70
2019-06-27T00:19:58.630Z,28.70
2019-06-27T00:21:03.683Z,28.60
2019-06-27T00:22:08.177Z,28.60
2019-06-27T00:23:13.245Z,28.60
2019-06-27T00:24:17.846Z,28.60
2019-06-27T00:25:22.934Z,28.60
2019-06-27T00:26:27.460Z,28.60
2019-06-27T00:27:32.526Z,28.50
2019-06-27T00:28:37.106Z,28.50
2019-06-27T00:29:42.272Z,28.50
2019-06-27T00:30:46.799Z,28.50
2019-06-27T00:31:51.862Z,28.50
2019-06-27T00:32:56.439Z,28.40
2019-06-27T00:34:01.585Z,28.40
2019-06-27T00:35:07.953Z,28.40
2019-06-27T00:36:13.009Z,28.40
2019-06-27T00:37:17.500Z,28.40
2019-06-27T00:38:22.580Z,28.40
2019-06-27T00:39:27.154Z,28.40
2019-06-27T00:40:32.246Z,28.40
2019-06-27T00:41:36.801Z,28.40
2019-06-27T00:42:41.941Z,28.30
2019-06-27T00:43:46.413Z,28.30
2019-06-27T00:44:51.459Z,28.30
2019-06-27T00:45:56.080Z,28.30
2019-06-27T00:47:01.134Z,28.30
2019-06-27T00:48:05.680Z,28.30
2019-06-27T00:49:10.839Z,28.30
2019-06-27T00:50:15.938Z,28.20
2019-06-27T00:51:21.210Z,28.20
2019-06-27T00:52:25.938Z,28.20
2019-06-27T00:53:31.022Z,28.20
2019-06-27T00:54:35.491Z,28.20
2019-06-27T00:55:40.768Z,28.20
2019-06-27T00:56:45.245Z,28.20
2019-06-27T00:57:50.388Z,28.10
2019-06-27T00:58:54.856Z,28.10
2019-06-27T01:00:00.048Z,28.10
2019-06-27T01:01:05.087Z,28.10
2019-06-27T01:02:10.274Z,28.10
2019-06-27T01:03:14.741Z,28.00
2019-06-27T01:04:20.132Z,28.00
2019-06-27T01:05:24.670Z,28.00
2019-06-27T01:06:29.792Z,28.00
2019-06-27T01:07:34.432Z,28.00
2019-06-27T01:08:39.572Z,28.00
2019-06-27T01:09:44.195Z,28.00
2019-06-27T01:10:49.396Z,28.00
2019-06-27T01:11:53.888Z,27.90
2019-06-27T01:12:59.032Z,27.90
2019-06-27T01:14:04.744Z,27.90
2019-06-27T01:15:10.513Z,27.90
2019-06-27T01:16:15.038Z,27.90
2019-06-27T01:17:20.143Z,27.90
2019-06-27T01:18:24.673Z,27.90
2019-06-27T01:19:29.839Z,27.90
2019-06-27T01:20:34.623Z,27.80
2019-06-27T01:21:40.128Z,27.80
2019-06-27T01:22:44.872Z,27.80
2019-06-27T01:23:49.933Z,27.80
2019-06-27T01:24:55.272Z,27.80
2019-06-27T01:26:00.319Z,27.80
2019-06-27T01:27:04.863Z,27.80
2019-06-27T01:28:10.201Z,27.80
2019-06-27T01:29:14.696Z,27.70
2019-06-27T01:30:20.497Z,27.80
2019-06-27T01:31:25.044Z,27.70
2019-06-27T01:32:30.090Z,27.70
2019-06-27T01:33:34.574Z,27.70
2019-06-27T01:34:39.694Z,27.70
2019-06-27T01:35:44.174Z,27.70
2019-06-27T01:36:49.374Z,27.70
2019-06-27T01:37:54.024Z,27.70
2019-06-27T01:38:59.312Z,27.70
2019-06-27T01:40:09.082Z,27.70
2019-06-27T01:41:14.493Z,27.70
2019-06-27T01:42:18.979Z,27.70
2019-06-27T01:43:24.121Z,27.70
2019-06-27T01:44:39.237Z,27.60
2019-06-27T01:45:48.254Z,27.60
2019-06-27T01:46:52.794Z,27.60
2019-06-27T01:47:57.933Z,27.60
2019-06-27T01:49:02.503Z,27.60
2019-06-27T01:50:08.143Z,27.70
2019-06-27T01:51:12.653Z,27.70
2019-06-27T01:52:17.716Z,27.70
2019-06-27T01:53:22.178Z,27.70
2019-06-27T01:54:27.222Z,27.60
2019-06-27T01:55:31.899Z,27.60
2019-06-27T01:56:36.977Z,27.70
2019-06-27T01:57:46.772Z,27.70
2019-06-27T01:58:48.422Z,27.70
2019-06-27T01:59:52.982Z,27.70
2019-06-27T02:00:58.060Z,27.70
2019-06-27T02:02:02.604Z,27.70
2019-06-27T02:03:08.095Z,27.70
2019-06-27T02:04:12.564Z,27.70
2019-06-27T02:05:18.021Z,27.70
2019-06-27T02:06:22.556Z,27.70
2019-06-27T02:07:27.638Z,27.70
2019-06-27T02:08:32.250Z,27.70
2019-06-27T02:09:37.608Z,27.70
2019-06-27T02:10:43.030Z,27.70
2019-06-27T02:11:48.259Z,27.70
2019-06-27T02:12:52.732Z,27.70
2019-06-27T02:13:57.826Z,27.70
2019-06-27T02:15:02.322Z,27.70
2019-06-27T02:16:07.476Z,27.70
2019-06-27T02:17:12.298Z,27.70
2019-06-27T02:18:17.685Z,27.60
2019-06-27T02:19:22.228Z,27.60
2019-06-27T02:20:27.717Z,27.70
2019-06-27T02:21:32.471Z,27.60
2019-06-27T02:22:38.168Z,27.60
2019-06-27T02:23:42.740Z,27.60
2019-06-27T02:24:47.858Z,27.60
2019-06-27T02:25:52.321Z,27.60
2019-06-27T02:26:57.392Z,27.60
2019-06-27T02:28:04.075Z,27.60
2019-06-27T02:29:08.636Z,27.60
2019-06-27T02:30:14.053Z,27.60
2019-06-27T02:31:19.094Z,27.60
2019-06-27T02:32:23.660Z,27.60
2019-06-27T02:33:28.716Z,27.60
2019-06-27T02:34:33.203Z,27.60
2019-06-27T02:35:38.494Z,27.60
2019-06-27T02:36:42.987Z,27.50
2019-06-27T02:37:48.057Z,27.60
2019-06-27T02:38:52.551Z,27.50
2019-06-27T02:39:58.067Z,27.50
2019-06-27T02:41:02.757Z,27.50
2019-06-27T02:42:07.914Z,27.50
2019-06-27T02:43:12.469Z,27.50
2019-06-27T02:44:17.663Z,27.40
2019-06-27T02:45:22.219Z,27.50
2019-06-27T02:46:27.343Z,27.40
2019-06-27T02:47:31.828Z,27.40
2019-06-27T02:48:36.989Z,27.40
2019-06-27T02:49:41.479Z,27.40
2019-06-27T02:50:46.671Z,27.40
2019-06-27T02:51:51.269Z,27.40
2019-06-27T02:52:56.402Z,27.30
2019-06-27T02:54:00.974Z,27.30
2019-06-27T02:55:07.383Z,27.30
2019-06-27T02:56:11.941Z,27.30
2019-06-27T02:57:17.082Z,27.20
2019-06-27T02:58:31.378Z,27.30
2019-06-27T02:59:28.636Z,27.20
2019-06-27T03:00:33.182Z,27.20
2019-06-27T03:01:38.462Z,27.20
2019-06-27T03:02:42.989Z,27.20
2019-06-27T03:03:48.044Z,27.10
2019-06-27T03:04:52.635Z,27.10
2019-06-27T03:05:57.833Z,27.10
2019-06-27T03:07:02.570Z,27.10
2019-06-27T03:08:08.418Z,27.10
2019-06-27T03:09:13.124Z,27.10
2019-06-27T03:10:19.114Z,27.00
2019-06-27T03:11:23.600Z,27.00
2019-06-27T03:12:28.774Z,27.00
2019-06-27T03:13:33.266Z,27.00
2019-06-27T03:14:38.318Z,27.00
2019-06-27T03:15:43.385Z,27.00
2019-06-27T03:16:48.697Z,27.00
2019-06-27T03:17:53.328Z,27.00
2019-06-27T03:18:58.488Z,27.00
2019-06-27T03:20:04.410Z,27.00
2019-06-27T03:21:09.895Z,27.00
2019-06-27T03:22:14.356Z,27.00
2019-06-27T03:23:19.409Z,27.00
2019-06-27T03:24:24.100Z,26.90
2019-06-27T03:25:29.179Z,26.90
2019-06-27T03:26:33.746Z,26.90
2019-06-27T03:27:38.788Z,26.90
2019-06-27T03:28:51.670Z,26.90
2019-06-27T03:29:50.216Z,26.90
2019-06-27T03:30:54.725Z,26.90
2019-06-27T03:31:59.838Z,26.80
2019-06-27T03:33:04.317Z,26.80
2019-06-27T03:34:09.561Z,26.80
2019-06-27T03:35:14.255Z,26.80
2019-06-27T03:36:19.480Z,26.80
2019-06-27T03:37:23.972Z,26.80
2019-06-27T03:38:29.007Z,26.80
2019-06-27T03:39:33.631Z,26.70
2019-06-27T03:40:38.683Z,26.70
2019-06-27T03:41:43.240Z,26.70
2019-06-27T03:42:48.416Z,26.70
2019-06-27T03:43:53.086Z,26.60
2019-06-27T03:44:58.318Z,26.60
2019-06-27T03:46:02.788Z,26.60
2019-06-27T03:47:08.009Z,26.60
2019-06-27T03:48:12.523Z,26.50
2019-06-27T03:49:17.617Z,26.50
2019-06-27T03:50:22.297Z,26.50
2019-06-27T03:51:27.497Z,26.50
2019-06-27T03:52:32.170Z,26.50
2019-06-27T03:53:37.230Z,26.50
2019-06-27T03:54:41.762Z,26.50
2019-06-27T03:55:46.826Z,26.50
2019-06-27T03:56:51.305Z,26.50
2019-06-27T03:57:56.461Z,26.50
2019-06-27T03:59:12.522Z,26.50
2019-06-27T04:00:08.234Z,26.50
2019-06-27T04:01:12.755Z,26.50
2019-06-27T04:02:17.905Z,26.60
2019-06-27T04:03:22.408Z,26.60
2019-06-27T04:04:27.462Z,26.60
2019-06-27T04:05:31.952Z,26.60
2019-06-27T04:06:37.075Z,26.60
2019-06-27T04:07:41.584Z,26.60
2019-06-27T04:08:46.705Z,26.70
2019-06-27T04:09:51.199Z,26.70
2019-06-27T04:10:56.705Z,26.60
2019-06-27T04:12:01.289Z,26.60
2019-06-27T04:13:06.773Z,26.60
2019-06-27T04:14:11.239Z,26.60
2019-06-27T04:15:16.421Z,26.60
2019-06-27T04:16:21.171Z,26.60
2019-06-27T04:17:26.364Z,26.60
2019-06-27T04:18:30.894Z,26.60
2019-06-27T04:19:36.022Z,26.60
2019-06-27T04:20:40.519Z,26.70
2019-06-27T04:21:45.567Z,26.70
2019-06-27T04:22:50.137Z,26.70
2019-06-27T04:23:55.216Z,26.70
2019-06-27T04:24:59.810Z,26.70
2019-06-27T04:26:04.884Z,26.70
2019-06-27T04:27:09.369Z,26.70
2019-06-27T04:28:14.397Z,26.70
2019-06-27T04:29:32.712Z,26.70
2019-06-27T04:30:25.623Z,26.70
2019-06-27T04:31:30.121Z,26.70
2019-06-27T04:32:35.508Z,26.70
2019-06-27T04:33:40.107Z,26.70
2019-06-27T04:34:45.335Z,26.80
2019-06-27T04:35:49.831Z,26.80
2019-06-27T04:36:55.043Z,26.80
2019-06-27T04:37:59.928Z,26.80
2019-06-27T04:39:05.418Z,26.80
2019-06-27T04:40:09.978Z,26.80
2019-06-27T04:41:15.122Z,26.80
2019-06-27T04:42:19.617Z,26.90
2019-06-27T04:43:24.758Z,26.90
2019-06-27T04:44:29.228Z,26.90
2019-06-27T04:45:34.396Z,26.90
2019-06-27T04:46:39.211Z,26.90
2019-06-27T04:47:44.296Z,27.00
2019-06-27T04:48:48.859Z,27.00
2019-06-27T04:49:53.996Z,27.00
2019-06-27T04:50:58.597Z,27.00
2019-06-27T04:52:03.748Z,27.10
2019-06-27T04:53:08.350Z,27.10
2019-06-27T04:54:13.560Z,27.10
2019-06-27T04:55:18.031Z,27.10
2019-06-27T04:56:23.093Z,27.20
2019-06-27T04:57:27.580Z,27.20
2019-06-27T04:58:32.654Z,27.20
2019-06-27T04:59:52.630Z,27.20
2019-06-27T05:00:43.993Z,27.20
2019-06-27T05:01:48.478Z,27.30
2019-06-27T05:02:53.577Z,27.30
2019-06-27T05:03:58.169Z,27.30
2019-06-27T05:05:03.611Z,27.30
2019-06-27T05:06:08.440Z,27.30
2019-06-27T05:07:13.537Z,27.30
2019-06-27T05:08:18.059Z,27.40
2019-06-27T05:09:23.121Z,27.40
2019-06-27T05:10:27.683Z,27.40
2019-06-27T05:11:32.890Z,27.40
2019-06-27T05:12:37.424Z,27.50
2019-06-27T05:13:42.769Z,27.50
2019-06-27T05:14:47.275Z,27.50
2019-06-27T05:15:52.404Z,27.50
2019-06-27T05:16:56.888Z,27.60
2019-06-27T05:18:02.052Z,27.60
2019-06-27T05:19:06.853Z,27.60
2019-06-27T05:20:12.278Z,27.60
2019-06-27T05:21:16.838Z,27.60
2019-06-27T05:22:21.896Z,27.60
2019-06-27T05:23:26.385Z,27.70
2019-06-27T05:24:31.530Z,27.70
2019-06-27T05:25:36.021Z,27.70
2019-06-27T05:26:41.139Z,27.70
2019-06-27T05:27:45.603Z,27.80
2019-06-27T05:28:51.112Z,27.80
2019-06-27T05:30:08.661Z,27.80
2019-06-27T05:31:02.326Z,27.80
2019-06-27T05:32:06.798Z,27.80
2019-06-27T05:33:11.958Z,27.80
2019-06-27T05:34:16.650Z,27.80
2019-06-27T05:35:21.728Z,27.90
2019-06-27T05:36:26.217Z,27.90
2019-06-27T05:37:31.361Z,27.90
2019-06-27T05:38:35.848Z,27.90
2019-06-27T05:39:40.919Z,27.90
2019-06-27T05:40:45.413Z,28.00
2019-06-27T05:41:50.736Z,28.00
2019-06-27T05:42:55.219Z,28.00
2019-06-27T05:44:00.305Z,28.00
2019-06-27T05:45:06.421Z,28.10
2019-06-27T05:46:11.490Z,28.10
2019-06-27T05:47:15.968Z,28.10
2019-06-27T05:48:21.035Z,28.10
2019-06-27T05:49:25.514Z,28.20
2019-06-27T05:50:30.584Z,28.20
2019-06-27T05:51:35.119Z,28.20
2019-06-27T05:52:40.182Z,28.20
2019-06-27T05:53:45.825Z,28.30
2019-06-27T05:54:51.446Z,28.30
2019-06-27T05:55:55.966Z,28.30
2019-06-27T05:57:01.031Z,28.30
2019-06-27T05:58:05.530Z,28.30
2019-06-27T05:59:10.581Z,28.40
2019-06-27T06:00:28.291Z,28.40
2019-06-27T06:01:23.846Z,28.40
2019-06-27T06:02:28.360Z,28.40
2019-06-27T06:03:33.439Z,28.40
2019-06-27T06:04:37.976Z,28.40
2019-06-27T06:05:43.110Z,28.50
2019-06-27T06:06:47.579Z,28.40
2019-06-27T06:07:52.671Z,28.50
2019-06-27T06:08:57.299Z,28.50
2019-06-27T06:10:02.470Z,28.50
2019-06-27T06:11:07.076Z,28.50
2019-06-27T06:12:12.265Z,28.50
2019-06-27T06:13:16.726Z,28.60
2019-06-27T06:14:21.778Z,28.60
2019-06-27T06:15:26.320Z,28.60
2019-06-27T06:16:31.781Z,28.60
2019-06-27T06:17:36.326Z,28.60
2019-06-27T06:18:41.538Z,28.60
2019-06-27T06:19:46.302Z,28.60
2019-06-27T06:20:51.393Z,28.70
2019-06-27T06:21:55.932Z,28.70
2019-06-27T06:23:01.403Z,28.70
2019-06-27T06:24:06.021Z,28.70
2019-06-27T06:25:11.209Z,28.80
2019-06-27T06:26:15.678Z,28.80
2019-06-27T06:27:20.744Z,28.80
2019-06-27T06:28:25.246Z,28.80
2019-06-27T06:29:30.331Z,28.80
2019-06-27T06:30:44.249Z,28.90
2019-06-27T06:31:41.768Z,28.90
2019-06-27T06:32:46.302Z,28.90
2019-06-27T06:33:51.419Z,28.90
2019-06-27T06:34:55.893Z,29.00
2019-06-27T06:36:01.063Z,29.00
2019-06-27T06:37:08.046Z,29.00
2019-06-27T06:38:12.315Z,29.10
2019-06-27T06:39:16.888Z,29.10
2019-06-27T06:40:22.131Z,29.10
2019-06-27T06:41:26.662Z,29.10
2019-06-27T06:42:31.802Z,29.10
2019-06-27T06:43:36.315Z,29.20
2019-06-27T06:44:41.382Z,29.20
2019-06-27T06:45:45.938Z,29.20
2019-06-27T06:46:51.113Z,29.20
2019-06-27T06:47:55.603Z,29.30
2019-06-27T06:49:00.681Z,29.30
2019-06-27T06:50:06.471Z,29.30
2019-06-27T06:51:11.518Z,29.30
2019-06-27T06:52:16.099Z,29.30
2019-06-27T06:53:21.210Z,29.40
2019-06-27T06:54:25.670Z,29.40
2019-06-27T06:55:31.183Z,29.40
2019-06-27T06:56:35.668Z,29.50
2019-06-27T06:57:41.606Z,29.50
2019-06-27T06:58:46.206Z,29.50
2019-06-27T06:59:51.312Z,29.50
2019-06-27T07:01:01.728Z,29.50
2019-06-27T07:02:02.668Z,29.60
2019-06-27T07:03:07.159Z,29.60
2019-06-27T07:04:12.224Z,29.60
2019-06-27T07:05:16.795Z,29.60
2019-06-27T07:06:21.889Z,29.60
2019-06-27T07:07:26.452Z,29.60
2019-06-27T07:08:31.661Z,29.60
2019-06-27T07:09:36.174Z,29.70
2019-06-27T07:10:41.649Z,29.70
2019-06-27T07:11:46.247Z,29.70
2019-06-27T07:12:51.288Z,29.70
2019-06-27T07:13:55.752Z,29.70
2019-06-27T07:15:00.846Z,29.80
2019-06-27T07:16:05.650Z,29.80
2019-06-27T07:17:10.778Z,29.80
2019-06-27T07:18:15.270Z,29.80
2019-06-27T07:19:20.593Z,29.80
2019-06-27T07:20:25.146Z,29.90
2019-06-27T07:21:30.227Z,29.90
2019-06-27T07:22:34.739Z,29.90
2019-06-27T07:23:40.165Z,29.90
2019-06-27T07:24:44.829Z,29.90
2019-06-27T07:25:49.920Z,30.00
2019-06-27T07:26:54.477Z,30.00
2019-06-27T07:27:59.768Z,30.00
2019-06-27T07:29:04.332Z,30.00
2019-06-27T07:30:09.567Z,30.10
2019-06-27T07:31:18.085Z,30.10
2019-06-27T07:32:20.796Z,30.10
2019-06-27T07:33:25.285Z,30.20
2019-06-27T07:34:30.628Z,30.20
2019-06-27T07:35:35.181Z,30.20
2019-06-27T07:36:40.261Z,30.30
2019-06-27T07:37:44.829Z,30.30
2019-06-27T07:38:49.897Z,30.30
2019-06-27T07:39:54.397Z,30.40
2019-06-27T07:40:59.543Z,30.40
2019-06-27T07:42:04.149Z,30.50
2019-06-27T07:43:09.315Z,30.50
2019-06-27T07:44:13.796Z,30.50
2019-06-27T07:45:19.023Z,30.60
2019-06-27T07:46:25.627Z,30.60
2019-06-27T07:47:30.476Z,30.60
2019-06-27T07:48:35.249Z,30.70
2019-06-27T07:49:40.352Z,30.70
2019-06-27T07:50:44.898Z,30.80
2019-06-27T07:51:50.420Z,30.80
2019-06-27T07:52:54.927Z,30.80
2019-06-27T07:54:01.320Z,30.90
2019-06-27T07:55:07.068Z,30.90
2019-06-27T07:56:12.873Z,30.90
2019-06-27T07:57:17.450Z,31.00
2019-06-27T07:58:22.750Z,31.00
2019-06-27T07:59:27.316Z,31.10
2019-06-27T08:00:32.370Z,31.10
2019-06-27T08:01:36.887Z,31.20
2019-06-27T08:02:42.168Z,31.20
2019-06-27T08:03:46.714Z,31.20
2019-06-27T08:04:51.855Z,31.30
2019-06-27T08:05:56.337Z,31.30
2019-06-27T08:07:01.452Z,31.40
2019-06-27T08:08:05.940Z,31.40
2019-06-27T08:09:10.988Z,31.50
2019-06-27T08:10:16.305Z,31.50
2019-06-27T08:11:21.522Z,31.50
2019-06-27T08:12:26.008Z,31.60
2019-06-27T08:13:31.094Z,31.60
2019-06-27T08:14:35.756Z,31.60
2019-06-27T08:15:40.888Z,31.70
2019-06-27T08:16:45.474Z,31.70
2019-06-27T08:17:50.640Z,31.80
2019-06-27T08:18:55.155Z,31.80
2019-06-27T08:20:00.198Z,31.90
2019-06-27T08:21:05.936Z,31.90
2019-06-27T08:22:11.009Z,32.00
2019-06-27T08:23:15.545Z,32.00
2019-06-27T08:24:20.639Z,32.10
2019-06-27T08:25:25.281Z,32.20
2019-06-27T08:26:30.373Z,32.20
2019-06-27T08:27:34.984Z,32.20
2019-06-27T08:28:40.218Z,32.30
2019-06-27T08:29:44.823Z,32.30
2019-06-27T08:30:49.934Z,32.40
2019-06-27T08:31:54.484Z,32.50
2019-06-27T08:32:59.634Z,32.50
2019-06-27T08:34:04.279Z,32.60
2019-06-27T08:35:10.682Z,32.70
2019-06-27T08:36:15.247Z,32.70
2019-06-27T08:37:20.320Z,32.70
2019-06-27T08:38:24.800Z,32.80
2019-06-27T08:39:29.918Z,32.90
2019-06-27T08:40:34.830Z,32.90
2019-06-27T08:41:39.912Z,33.00
2019-06-27T08:42:44.429Z,33.00
2019-06-27T08:43:49.715Z,33.00
2019-06-27T08:44:54.267Z,33.10
2019-06-27T08:45:59.333Z,33.20
2019-06-27T08:47:04.011Z,33.20
2019-06-27T08:48:09.230Z,33.30
2019-06-27T08:49:13.741Z,33.30
2019-06-27T08:50:19.184Z,33.40
2019-06-27T08:51:23.741Z,33.40
2019-06-27T08:52:28.995Z,33.40
2019-06-27T08:53:33.495Z,33.40
2019-06-27T08:54:38.628Z,33.50
2019-06-27T08:55:43.367Z,33.60
2019-06-27T08:56:48.536Z,33.60
2019-06-27T08:57:53.012Z,33.70
2019-06-27T08:58:58.103Z,33.70
2019-06-27T09:00:02.662Z,33.80
2019-06-27T09:01:07.728Z,33.80
2019-06-27T09:02:12.336Z,33.90
2019-06-27T09:03:17.476Z,33.90
2019-06-27T09:04:21.959Z,33.90
2019-06-27T09:05:27.070Z,34.00
2019-06-27T09:06:31.566Z,34.00
2019-06-27T09:07:36.626Z,34.10
2019-06-27T09:08:41.116Z,34.10
2019-06-27T09:09:46.279Z,34.20
2019-06-27T09:10:50.996Z,34.20
2019-06-27T09:11:56.242Z,34.30
2019-06-27T09:13:00.818Z,34.30
2019-06-27T09:14:05.992Z,34.40
2019-06-27T09:15:11.599Z,34.40
2019-06-27T09:16:16.652Z,34.50
2019-06-27T09:17:21.297Z,34.50
2019-06-27T09:18:26.351Z,34.60
2019-06-27T09:19:30.924Z,34.60
2019-06-27T09:20:36.044Z,34.70
2019-06-27T09:21:40.519Z,34.80
2019-06-27T09:22:45.698Z,34.80
2019-06-27T09:23:50.234Z,34.90
2019-06-27T09:24:55.451Z,34.90
2019-06-27T09:26:00.068Z,34.90
2019-06-27T09:27:05.172Z,35.00
2019-06-27T09:28:09.644Z,35.10
2019-06-27T09:29:14.703Z,35.10
2019-06-27T09:30:19.586Z,35.20
2019-06-27T09:31:24.692Z,35.30
2019-06-27T09:32:29.225Z,35.30
2019-06-27T09:33:34.348Z,35.30
2019-06-27T09:34:38.888Z,35.30
2019-06-27T09:35:43.965Z,35.40
2019-06-27T09:36:48.414Z,35.40
2019-06-27T09:37:53.749Z,35.50
2019-06-27T09:38:58.278Z,35.50
2019-06-27T09:40:03.387Z,35.60
2019-06-27T09:41:07.946Z,35.60
2019-06-27T09:42:13.072Z,35.70
2019-06-27T09:43:17.613Z,35.70
2019-06-27T09:44:22.657Z,35.80
2019-06-27T09:45:27.306Z,35.80
2019-06-27T09:46:32.363Z,35.90
2019-06-27T09:47:36.842Z,35.90
2019-06-27T09:48:41.871Z,36.00
2019-06-27T09:49:46.331Z,36.00
2019-06-27T09:50:51.459Z,36.10
2019-06-27T09:51:56.029Z,36.10
2019-06-27T09:53:01.064Z,36.20
2019-06-27T09:54:05.621Z,36.20
2019-06-27T09:55:11.116Z,36.30
2019-06-27T09:56:15.604Z,36.30
2019-06-27T09:57:20.736Z,36.30
2019-06-27T09:58:25.304Z,36.30
2019-06-27T09:59:30.572Z,36.40
2019-06-27T10:00:35.044Z,36.40
2019-06-27T10:01:40.107Z,36.50
2019-06-27T10:02:44.738Z,36.50
2019-06-27T10:03:49.863Z,36.60
2019-06-27T10:04:54.342Z,36.60
2019-06-27T10:05:59.500Z,36.60
2019-06-27T10:07:04.004Z,36.60
2019-06-27T10:08:09.092Z,36.70
2019-06-27T10:09:13.611Z,36.70
2019-06-27T10:10:19.078Z,36.70
2019-06-27T10:11:23.556Z,36.80
2019-06-27T10:12:41.871Z,36.80
2019-06-27T10:13:35.168Z,36.90
2019-06-27T10:14:40.305Z,36.90
2019-06-27T10:15:44.770Z,37.00
2019-06-27T10:16:49.834Z,37.00
2019-06-27T10:17:54.332Z,37.00
2019-06-27T10:18:59.391Z,37.10
2019-06-27T10:20:05.996Z,37.10
2019-06-27T10:21:11.072Z,37.10
2019-06-27T10:22:15.601Z,37.10
2019-06-27T10:23:21.296Z,37.10
2019-06-27T10:24:26.684Z,37.10
2019-06-27T10:25:32.368Z,37.10
2019-06-27T10:26:37.197Z,37.20
2019-06-27T10:27:42.527Z,37.20
2019-06-27T10:28:47.349Z,37.20
2019-06-27T10:29:52.845Z,37.20
2019-06-27T10:30:57.363Z,37.20
2019-06-27T10:32:02.429Z,37.30
2019-06-27T10:33:06.988Z,37.30
2019-06-27T10:34:12.299Z,37.40
2019-06-27T10:35:16.787Z,37.40
2019-06-27T10:36:21.880Z,37.40
2019-06-27T10:37:26.415Z,37.50
2019-06-27T10:38:31.479Z,37.50
2019-06-27T10:39:36.002Z,37.60
2019-06-27T10:40:41.111Z,37.70
2019-06-27T10:41:45.652Z,37.70
2019-06-27T10:42:50.753Z,37.80
2019-06-27T10:43:58.300Z,37.90
2019-06-27T10:45:02.328Z,37.90
2019-06-27T10:46:06.836Z,38.00
2019-06-27T10:47:11.905Z,38.10
2019-06-27T10:48:16.610Z,38.20
2019-06-27T10:49:21.708Z,38.20
2019-06-27T10:50:26.302Z,38.30
2019-06-27T10:51:31.415Z,38.40
2019-06-27T10:52:35.912Z,38.50
2019-06-27T10:53:40.955Z,38.60
2019-06-27T10:54:45.426Z,38.60
2019-06-27T10:55:50.493Z,38.70
2019-06-27T10:56:54.974Z,38.80
2019-06-27T10:58:00.184Z,38.90
2019-06-27T10:59:04.727Z,39.00
2019-06-27T11:00:10.761Z,39.10
2019-06-27T11:01:15.288Z,39.20
2019-06-27T11:02:20.423Z,39.30
2019-06-27T11:03:24.984Z,39.40
2019-06-27T11:04:30.024Z,39.50
2019-06-27T11:05:34.574Z,39.50
2019-06-27T11:06:39.647Z,39.60
2019-06-27T11:07:44.203Z,39.70
2019-06-27T11:08:49.270Z,39.80
2019-06-27T11:23:00.760Z,40.80
2019-06-27T11:24:05.881Z,41.00
2019-06-27T11:25:11.997Z,41.10
2019-06-27T11:26:17.059Z,41.10
2019-06-27T11:27:21.550Z,41.10
2019-06-27T11:28:26.675Z,41.20
2019-06-27T11:29:31.156Z,41.20
2019-06-27T11:30:36.212Z,41.20
2019-06-27T11:31:40.690Z,41.20
2019-06-27T11:32:45.822Z,41.30
2019-06-27T11:33:50.376Z,41.40
2019-06-27T11:34:55.418Z,41.40
2019-06-27T11:35:59.893Z,41.40
2019-06-27T11:37:05.006Z,41.50
2019-06-27T11:38:09.492Z,41.50
2019-06-27T11:39:14.623Z,41.50
2019-06-27T11:40:19.431Z,41.60
2019-06-27T11:41:24.491Z,41.60
2019-06-27T11:42:30.006Z,41.60
2019-06-27T11:43:35.161Z,41.70
2019-06-27T11:44:39.870Z,41.70
2019-06-27T11:45:44.920Z,41.80
2019-06-27T11:46:49.408Z,41.80
2019-06-27T11:47:54.470Z,41.80
2019-06-27T11:48:58.952Z,41.90
2019-06-27T11:50:05.242Z,41.90
2019-06-27T11:51:09.868Z,41.90
2019-06-27T11:52:15.066Z,42.00
2019-06-27T11:53:19.518Z,42.00
2019-06-27T11:54:24.594Z,42.10
2019-06-27T11:55:29.068Z,42.10
2019-06-27T11:56:34.141Z,42.10
2019-06-27T11:57:38.719Z,42.10
2019-06-27T11:58:43.750Z,42.20
2019-06-27T11:59:48.259Z,42.30
2019-06-27T12:00:53.387Z,42.30
2019-06-27T12:01:57.924Z,42.40
2019-06-27T12:03:03.281Z,42.40
2019-06-27T12:04:08.015Z,42.40
2019-06-27T12:05:13.792Z,42.50
2019-06-27T12:06:18.274Z,42.50
2019-06-27T12:07:23.315Z,42.50
2019-06-27T12:08:27.823Z,42.50
2019-06-27T12:09:32.918Z,42.60
2019-06-27T12:10:37.444Z,42.60
2019-06-27T12:11:42.514Z,42.60
2019-06-27T12:12:46.981Z,42.60
2019-06-27T12:13:52.050Z,42.70
2019-06-27T12:14:56.556Z,42.70
2019-06-27T12:16:01.617Z,42.80
2019-06-27T12:17:06.152Z,42.80
2019-06-27T12:18:11.220Z,42.80
2019-06-27T12:19:15.698Z,42.90
2019-06-27T12:20:21.509Z,42.90
2019-06-27T12:21:25.965Z,42.90
2019-06-27T12:22:31.053Z,42.90
2019-06-27T12:23:35.518Z,42.90
2019-06-27T12:24:40.598Z,42.80
2019-06-27T12:25:45.081Z,42.80
2019-06-27T12:26:50.128Z,42.80
2019-06-27T12:27:54.604Z,42.80
2019-06-27T12:28:59.696Z,42.80
2019-06-27T12:30:08.360Z,42.80
2019-06-27T12:31:20.560Z,42.80
2019-06-27T12:32:19.582Z,42.80
2019-06-27T12:33:24.634Z,42.80
2019-06-27T12:34:29.170Z,42.80
2019-06-27T12:35:34.391Z,42.80
2019-06-27T12:36:38.929Z,42.80
2019-06-27T12:37:43.989Z,42.90
2019-06-27T12:38:48.464Z,42.80
2019-06-27T12:39:53.512Z,42.80
2019-06-27T12:40:58.111Z,42.80
2019-06-27T12:42:03.492Z,42.70
2019-06-27T12:43:08.054Z,42.60
2019-06-27T12:44:13.242Z,42.60
2019-06-27T12:45:18.411Z,42.50
2019-06-27T12:46:23.534Z,42.50
2019-06-27T12:47:28.045Z,42.50
2019-06-27T12:48:36.796Z,42.40
2019-06-27T12:49:56.909Z,42.40
2019-06-27T12:50:46.204Z,42.40
2019-06-27T12:51:50.746Z,42.30
2019-06-27T12:52:55.818Z,42.20
2019-06-27T12:54:00.306Z,42.20
2019-06-27T12:55:06.008Z,42.20
2019-06-27T12:56:10.516Z,42.20
2019-06-27T12:57:15.728Z,42.20
2019-06-27T12:58:20.263Z,42.30
2019-06-27T12:59:25.372Z,42.30
2019-06-27T13:00:30.029Z,42.40
2019-06-27T13:01:35.145Z,42.40
2019-06-27T13:02:39.748Z,42.40
2019-06-27T13:03:44.800Z,42.40
2019-06-27T13:04:49.364Z,42.50
2019-06-27T13:05:54.568Z,42.60
2019-06-27T13:06:59.194Z,42.60
2019-06-27T13:08:04.295Z,42.70
2019-06-27T13:09:08.779Z,42.60
2019-06-27T13:10:14.852Z,42.70
2019-06-27T13:11:19.411Z,42.70
2019-06-27T13:12:24.614Z,42.80
2019-06-27T13:13:30.502Z,42.80
2019-06-27T13:14:35.737Z,42.80
2019-06-27T13:15:40.219Z,42.80
2019-06-27T13:16:45.327Z,42.90
2019-06-27T13:17:49.820Z,42.90
2019-06-27T13:18:54.878Z,42.90
2019-06-27T13:19:59.359Z,43.00
2019-06-27T13:21:04.455Z,43.00
2019-06-27T13:22:08.925Z,43.10
2019-06-27T13:23:13.983Z,43.10
2019-06-27T13:24:18.695Z,43.10
2019-06-27T13:25:23.766Z,43.20
2019-06-27T13:26:28.666Z,43.20
2019-06-27T13:27:33.761Z,43.20
2019-06-27T13:28:38.385Z,43.20
2019-06-27T13:29:43.433Z,43.20
2019-06-27T13:30:47.915Z,43.20
2019-06-27T13:31:52.957Z,43.20
2019-06-27T13:32:57.449Z,43.20
2019-06-27T13:34:02.773Z,43.20
2019-06-27T13:35:07.331Z,43.30
2019-06-27T13:36:12.375Z,43.20
2019-06-27T13:37:16.842Z,43.20
2019-06-27T13:38:21.951Z,43.30
2019-06-27T13:39:26.459Z,43.30
2019-06-27T13:40:31.587Z,43.30
2019-06-27T13:41:36.223Z,43.40
2019-06-27T13:42:41.298Z,43.40
2019-06-27T13:43:49.160Z,43.50
2019-06-27T13:44:52.701Z,43.50
2019-06-27T13:45:57.183Z,43.60
2019-06-27T13:47:02.517Z,43.70
2019-06-27T13:48:07.103Z,43.40
2019-06-27T13:49:12.170Z,43.60
2019-06-27T13:50:16.792Z,43.60
2019-06-27T13:51:21.835Z,43.50
2019-06-27T13:52:26.302Z,43.40
2019-06-27T13:53:31.391Z,43.50
2019-06-27T13:54:35.920Z,43.50
2019-06-27T13:55:40.994Z,43.50
2019-06-27T13:56:45.505Z,43.50
2019-06-27T13:57:50.570Z,43.50
2019-06-27T13:58:55.064Z,43.40
2019-06-27T14:00:01.440Z,43.40
2019-06-27T14:01:06.222Z,43.30
2019-06-27T14:02:11.286Z,43.30
2019-06-27T14:03:15.799Z,43.20
2019-06-27T14:04:24.158Z,43.10
2019-06-27T14:05:27.348Z,43.00
2019-06-27T14:06:32.546Z,43.00
2019-06-27T14:07:37.097Z,42.90
2019-06-27T14:08:42.153Z,42.80
2019-06-27T14:09:53.678Z,42.70